createdAt,value
2019-02-02T00:00:39.683Z,948.5
2019-02-02T00:03:46.001Z,948.5
2019-02-02T00:06:52.627Z,948.4
2019-02-02T00:09:58.842Z,948.5
2019-02-02T00:13:06.902Z,948.4
2019-02-02T00:16:14.423Z,948.5
2019-02-02T00:19:22.654Z,948.4
2019-02-02T00:22:30.151Z,948.4
2019-02-02T00:25:37.323Z,948.4
2019-02-02T00:28:44.014Z,948.3
2019-02-02T00:31:50.874Z,948.4
2019-02-02T00:34:59.107Z,948.4
2019-02-02T00:38:06.093Z,948.5
2019-02-02T00:41:12.411Z,948.5
2019-02-02T00:44:19.707Z,948.4
2019-02-02T00:47:26.011Z,948.3
2019-02-02T00:50:33.027Z,948.4
2019-02-02T00:53:40.522Z,948.4
2019-02-02T00:56:46.453Z,948.4
2019-02-02T00:59:53.468Z,948.4
2019-02-02T01:03:04.566Z,948.4
2019-02-02T01:06:11.860Z,948.4
2019-02-02T01:09:19.150Z,948.4
2019-02-02T01:12:28.359Z,948.4
2019-02-02T01:15:34.766Z,948.3
2019-02-02T01:18:41.510Z,948.3
2019-02-02T01:21:48.728Z,948.2
2019-02-02T01:24:55.327Z,948.2
2019-02-02T01:28:06.958Z,948.1
2019-02-02T01:31:16.287Z,948.1
2019-02-02T01:34:22.557Z,948
2019-02-02T01:37:29.085Z,948
2019-02-02T01:40:35.011Z,948.1
2019-02-02T01:43:41.854Z,948.1
2019-02-02T01:46:47.952Z,947.9
2019-02-02T01:49:55.188Z,947.9
2019-02-02T01:53:01.685Z,947.9
2019-02-02T01:56:08.561Z,947.8
2019-02-02T01:59:17.139Z,947.9
2019-02-02T02:02:23.660Z,947.8
2019-02-02T02:05:30.331Z,947.8
2019-02-02T02:08:37.088Z,947.8
2019-02-02T02:11:43.380Z,947.8
2019-02-02T02:14:50.465Z,947.9
2019-02-02T02:17:57.780Z,947.7
2019-02-02T02:21:04.268Z,947.7
2019-02-02T02:24:11.776Z,947.7
2019-02-02T02:27:17.717Z,947.8
2019-02-02T02:30:23.873Z,947.7
2019-02-02T02:33:30.117Z,947.6
2019-02-02T02:36:36.229Z,947.6
2019-02-02T02:39:42.103Z,947.6
2019-02-02T02:42:49.024Z,947.6
2019-02-02T02:45:55.450Z,947.6
2019-02-02T02:49:01.761Z,947.6
2019-02-02T02:52:09.124Z,947.6
2019-02-02T02:55:15.163Z,947.7
2019-02-02T02:58:21.305Z,947.7
2019-02-02T03:01:28.690Z,947.7
2019-02-02T03:04:36.417Z,947.6
2019-02-02T03:07:42.433Z,947.6
2019-02-02T03:10:49.673Z,947.6
2019-02-02T03:13:57.806Z,947.7
2019-02-02T03:17:03.994Z,947.4
2019-02-02T03:20:10.370Z,947.6
2019-02-02T03:23:20.012Z,947.6
2019-02-02T03:26:26.790Z,947.7
2019-02-02T03:29:32.749Z,947.8
2019-02-02T03:32:41.254Z,947.8
2019-02-02T03:35:48.407Z,947.7
2019-02-02T03:38:55.903Z,947.7
2019-02-02T03:42:01.913Z,947.6
2019-02-02T03:45:08.882Z,947.6
2019-02-02T03:48:14.783Z,947.7
2019-02-02T03:51:21.533Z,947.6
2019-02-02T03:54:28.893Z,947.7
2019-02-02T03:57:36.402Z,947.7
2019-02-02T04:00:43.561Z,947.7
2019-02-02T04:03:50.594Z,947.7
2019-02-02T04:06:57.273Z,947.6
2019-02-02T04:10:03.344Z,947.5
2019-02-02T04:13:09.702Z,947.5
2019-02-02T04:16:16.579Z,947.5
2019-02-02T04:19:22.741Z,947.6
2019-02-02T04:22:28.912Z,947.6
2019-02-02T04:25:38.392Z,947.7
2019-02-02T04:28:45.275Z,947.7
2019-02-02T04:31:51.292Z,947.8
2019-02-02T04:34:57.561Z,947.6
2019-02-02T04:38:03.723Z,947.6
2019-02-02T04:41:09.942Z,947.6
2019-02-02T04:44:18.276Z,947.6
2019-02-02T04:47:24.573Z,947.6
2019-02-02T04:50:30.840Z,947.7
2019-02-02T04:53:38.589Z,947.8
2019-02-02T04:56:46.046Z,947.6
2019-02-02T04:59:53.032Z,947.5
2019-02-02T05:03:02.533Z,947.6
2019-02-02T05:06:08.941Z,947.6
2019-02-02T05:09:15.241Z,947.7
2019-02-02T05:12:22.852Z,947.8
2019-02-02T05:15:28.946Z,947.7
2019-02-02T05:18:34.884Z,947.7
2019-02-02T05:21:41.122Z,947.8
2019-02-02T05:24:48.220Z,947.8
2019-02-02T05:27:56.902Z,947.7
2019-02-02T05:31:06.739Z,947.8
2019-02-02T05:34:14.733Z,947.9
2019-02-02T05:37:22.250Z,947.8
2019-02-02T05:40:28.729Z,947.8
2019-02-02T05:43:35.057Z,948
2019-02-02T05:46:41.622Z,948
2019-02-02T05:49:50.900Z,947.9
2019-02-02T05:52:58.498Z,947.9
2019-02-02T05:56:04.818Z,947.8
2019-02-02T05:59:14.104Z,947.7
2019-02-02T06:02:20.219Z,947.9
2019-02-02T06:05:27.599Z,948.1
2019-02-02T06:08:33.518Z,948
2019-02-02T06:11:39.926Z,948.2
2019-02-02T06:14:46.052Z,948.2
2019-02-02T06:17:52.012Z,948.1
2019-02-02T06:21:00.052Z,948
2019-02-02T06:24:06.182Z,948.1
2019-02-02T06:27:13.216Z,948.2
2019-02-02T06:30:19.126Z,948.2
2019-02-02T06:33:26.314Z,948.2
2019-02-02T06:36:33.791Z,948.3
2019-02-02T06:39:39.769Z,948.2
2019-02-02T06:42:46.683Z,948.3
2019-02-02T06:45:53.184Z,948.2
2019-02-02T06:49:03.039Z,948.4
2019-02-02T06:52:09.144Z,948.4
2019-02-02T06:55:17.314Z,948.5
2019-02-02T06:58:23.516Z,948.3
2019-02-02T07:01:30.064Z,948.3
2019-02-02T07:04:37.158Z,948.4
2019-02-02T07:07:43.238Z,948.5
2019-02-02T07:10:50.297Z,948.3
2019-02-02T07:13:56.487Z,948.4
2019-02-02T07:17:02.754Z,948.4
2019-02-02T07:20:11.463Z,948.4
2019-02-02T07:23:18.148Z,948.7
2019-02-02T07:26:25.221Z,948.5
2019-02-02T07:29:33.949Z,948.4
2019-02-02T07:32:41.720Z,948.3
2019-02-02T07:35:53.951Z,948.5
2019-02-02T07:39:01.355Z,948.4
2019-02-02T07:42:07.688Z,948.3
2019-02-02T07:45:14.885Z,948.3
2019-02-02T07:48:22.642Z,948.1
2019-02-02T07:51:30.749Z,948.1
2019-02-02T07:54:37.874Z,948
2019-02-02T07:57:43.963Z,948.1
2019-02-02T08:00:51.054Z,948.2
2019-02-02T08:04:01.120Z,948
2019-02-02T08:07:08.551Z,947.8
2019-02-02T08:10:18.132Z,948
2019-02-02T08:13:25.593Z,948
2019-02-02T08:16:32.961Z,948
2019-02-02T08:19:39.683Z,948
2019-02-02T08:22:47.702Z,948
2019-02-02T08:25:58.973Z,948.1
2019-02-02T08:29:09.655Z,948.2
2019-02-02T08:32:18.165Z,948.1
2019-02-02T08:35:25.101Z,948.2
2019-02-02T08:38:31.934Z,948.2
2019-02-02T08:41:40.289Z,948.1
2019-02-02T08:44:46.922Z,948.1
2019-02-02T08:47:55.498Z,948
2019-02-02T08:51:03.497Z,948.1
2019-02-02T08:54:13.124Z,948.1
2019-02-02T08:57:21.966Z,948.1
2019-02-02T09:00:30.099Z,948
2019-02-02T09:03:37.194Z,948
2019-02-02T09:06:45.964Z,948
2019-02-02T09:09:53.204Z,948
2019-02-02T09:12:59.967Z,948.1
2019-02-02T09:16:07.609Z,948.1
2019-02-02T09:19:14.914Z,948.1
2019-02-02T09:22:22.585Z,948
2019-02-02T09:25:28.579Z,948.1
2019-02-02T09:28:35.857Z,948.2
2019-02-02T09:31:46.376Z,948.2
2019-02-02T09:34:56.909Z,948.2
2019-02-02T09:38:04.732Z,948.1
2019-02-02T09:41:13.971Z,948.1
2019-02-02T09:44:21.260Z,948.1
2019-02-02T09:47:28.188Z,948
2019-02-02T09:50:34.640Z,948.1
2019-02-02T09:53:43.213Z,948
2019-02-02T09:56:50.400Z,947.9
2019-02-02T09:59:56.999Z,947.8
2019-02-02T10:03:07.568Z,948
2019-02-02T10:06:14.165Z,947.9
2019-02-02T10:09:21.430Z,947.9
2019-02-02T10:12:27.818Z,948
2019-02-02T10:15:34.663Z,947.8
2019-02-02T10:18:41.470Z,947.8
2019-02-02T10:21:50.901Z,947.8
2019-02-02T10:24:57.075Z,947.8
2019-02-02T10:28:03.394Z,947.9
2019-02-02T10:31:09.496Z,947.9
2019-02-02T10:34:16.868Z,947.7
2019-02-02T10:37:24.384Z,947.8
2019-02-02T10:40:31.521Z,947.7
2019-02-02T10:43:40.834Z,947.7
2019-02-02T10:46:46.974Z,947.5
2019-02-02T10:49:54.458Z,947.5
2019-02-02T10:53:00.964Z,947.4
2019-02-02T10:56:07.038Z,947.3
2019-02-02T10:59:13.275Z,947.2
2019-02-02T11:02:19.869Z,947.3
2019-02-02T11:05:27.216Z,947.4
2019-02-02T11:08:35.237Z,947.3
2019-02-02T11:11:43.785Z,947.2
2019-02-02T11:14:52.132Z,947.2
2019-02-02T11:17:59.909Z,947.2
2019-02-02T11:21:08.038Z,947.3
2019-02-02T11:24:18.716Z,947.3
2019-02-02T11:27:26.888Z,947.3
2019-02-02T11:30:35.438Z,947.2
2019-02-02T11:33:44.299Z,947.2
2019-02-02T11:36:51.306Z,947.3
2019-02-02T11:39:58.761Z,947.3
2019-02-02T11:43:06.667Z,947.2
2019-02-02T11:46:13.884Z,947.1
2019-02-02T11:49:20.172Z,947
2019-02-02T11:52:30.474Z,947
2019-02-02T11:55:39.316Z,947.1
2019-02-02T11:58:46.441Z,947
2019-02-02T12:01:52.707Z,947
2019-02-02T12:04:59.605Z,946.9
2019-02-02T12:08:05.719Z,946.8
2019-02-02T12:11:13.594Z,946.7
2019-02-02T12:14:20.587Z,946.6
2019-02-02T12:17:27.624Z,946.7
2019-02-02T12:20:34.949Z,946.7
2019-02-02T12:23:42.146Z,946.6
2019-02-02T12:26:48.782Z,946.6
2019-02-02T12:29:59.387Z,946.5
2019-02-02T12:33:06.813Z,946.4
2019-02-02T12:36:14.907Z,946.5
2019-02-02T12:39:25.800Z,946.4
2019-02-02T12:42:36.068Z,946.5
2019-02-02T12:45:48.695Z,946.5
2019-02-02T12:49:03.189Z,946.5
2019-02-02T12:52:10.124Z,946.4
2019-02-02T12:55:17.198Z,946.5
2019-02-02T12:58:30.537Z,946.5
2019-02-02T13:01:37.653Z,946.6
2019-02-02T13:04:43.739Z,946.6
2019-02-02T13:07:51.007Z,946.6
2019-02-02T13:10:57.648Z,946.6
2019-02-02T13:14:04.241Z,946.6
2019-02-02T13:17:11.517Z,946.6
2019-02-02T13:20:18.218Z,946.6
2019-02-02T13:23:25.411Z,946.8
2019-02-02T13:26:31.472Z,946.7
2019-02-02T13:29:39.710Z,946.7
2019-02-02T13:32:51.521Z,946.7
2019-02-02T13:35:58.669Z,946.7
2019-02-02T13:39:05.121Z,946.9
2019-02-02T13:42:13.794Z,946.9
2019-02-02T13:45:20.787Z,947.1
2019-02-02T13:48:27.200Z,947
2019-02-02T13:51:33.207Z,946.9
2019-02-02T13:54:39.953Z,946.9
2019-02-02T13:57:45.914Z,946.9
2019-02-02T14:00:53.003Z,946.8
2019-02-02T14:03:59.573Z,947
2019-02-02T14:07:17.278Z,946.8
2019-02-02T14:10:24.189Z,946.9
2019-02-02T14:13:30.390Z,946.9
2019-02-02T14:16:36.518Z,946.8
2019-02-02T14:19:42.994Z,946.7
2019-02-02T14:22:50.278Z,946.6
2019-02-02T14:25:56.894Z,946.9
2019-02-02T14:29:05.131Z,946.8
2019-02-02T14:32:11.231Z,946.8
2019-02-02T14:35:17.568Z,946.8
2019-02-02T14:38:28.431Z,946.8
2019-02-02T14:41:34.571Z,946.7
2019-02-02T14:44:40.767Z,946.6
2019-02-02T14:47:47.686Z,946.8
2019-02-02T14:50:53.748Z,946.8
2019-02-02T14:54:00.178Z,946.8
2019-02-02T14:57:07.100Z,946.7
2019-02-02T15:00:13.304Z,946.7
2019-02-02T15:03:28.745Z,946.8
2019-02-02T15:06:35.582Z,946.7
2019-02-02T15:09:41.474Z,946.6
2019-02-02T15:12:48.115Z,946.7
2019-02-02T15:15:54.123Z,946.8
2019-02-02T15:19:00.184Z,946.6
2019-02-02T15:22:06.144Z,946.7
2019-02-02T15:25:12.207Z,946.8
2019-02-02T15:28:19.037Z,946.7
2019-02-02T15:31:25.323Z,946.7
2019-02-02T15:34:32.188Z,946.7
2019-02-02T15:37:38.117Z,946.6
2019-02-02T15:40:44.698Z,946.7
2019-02-02T15:44:03.875Z,946.7
2019-02-02T15:47:10.153Z,946.7
2019-02-02T15:50:17.291Z,946.6
2019-02-02T15:53:26.644Z,946.6
2019-02-02T15:56:32.951Z,946.6
2019-02-02T15:59:40.606Z,946.6
2019-02-02T16:02:47.683Z,946.7
2019-02-02T16:05:54.470Z,946.8
2019-02-02T16:09:00.419Z,946.7
2019-02-02T16:12:06.511Z,946.7
2019-02-02T16:15:15.182Z,946.8
2019-02-02T16:18:24.037Z,946.8
2019-02-02T16:21:31.342Z,946.8
2019-02-02T16:24:37.395Z,946.7
2019-02-02T16:27:44.690Z,947
2019-02-02T16:30:50.646Z,946.8
2019-02-02T16:34:03.474Z,946.8
2019-02-02T16:37:09.670Z,946.8
2019-02-02T16:40:15.591Z,946.8
2019-02-02T16:43:22.099Z,946.8
2019-02-02T16:46:28.123Z,946.8
2019-02-02T16:49:34.289Z,946.9
2019-02-02T16:52:42.910Z,946.9
2019-02-02T16:55:48.953Z,946.9
2019-02-02T16:58:55.357Z,947
2019-02-02T17:02:01.227Z,946.9
2019-02-02T17:05:07.153Z,946.8
2019-02-02T17:08:13.210Z,946.8
2019-02-02T17:11:19.398Z,946.8
2019-02-02T17:14:25.545Z,946.8
2019-02-02T17:17:32.524Z,946.9
2019-02-02T17:20:38.589Z,946.9
2019-02-02T17:23:45.042Z,947
2019-02-02T17:26:51.040Z,947
2019-02-02T17:29:56.959Z,947
2019-02-02T17:33:03.038Z,947
2019-02-02T17:36:08.998Z,947.2
2019-02-02T17:39:14.963Z,947.2
2019-02-02T17:42:20.838Z,947.1
2019-02-02T17:45:26.877Z,947
2019-02-02T17:48:33.201Z,947.1
2019-02-02T17:51:39.181Z,947
2019-02-02T17:54:45.171Z,947
2019-02-02T17:57:51.124Z,947.1
2019-02-02T18:00:57.003Z,947.1
2019-02-02T18:04:03.154Z,947.2
2019-02-02T18:07:09.110Z,947.1
2019-02-02T18:10:15.065Z,947.2
2019-02-02T18:13:20.949Z,947.2
2019-02-02T18:16:26.883Z,947.1
2019-02-02T18:19:32.842Z,947.1
2019-02-02T18:22:38.803Z,947.2
2019-02-02T18:25:47.321Z,947.2
2019-02-02T18:28:55.129Z,947.2
2019-02-02T18:32:13.476Z,947.2
2019-02-02T18:35:19.536Z,947.1
2019-02-02T18:38:25.500Z,947.3
2019-02-02T18:41:31.554Z,947.1
2019-02-02T18:44:37.394Z,947.2
2019-02-02T18:47:43.582Z,947.1
2019-02-02T18:50:49.642Z,947.2
2019-02-02T18:53:55.657Z,947.1
2019-02-02T18:57:01.531Z,947.1
2019-02-02T19:00:07.660Z,947.2
2019-02-02T19:03:13.893Z,947.2
2019-02-02T19:06:19.777Z,947.2
2019-02-02T19:09:25.808Z,947.2
2019-02-02T19:12:31.774Z,947.2
2019-02-02T19:15:37.686Z,947.3
2019-02-02T19:18:43.687Z,947.3
2019-02-02T19:21:49.646Z,947.3
2019-02-02T19:24:55.607Z,947.4
2019-02-02T19:28:01.666Z,947.3
2019-02-02T19:31:07.730Z,947.4
2019-02-02T19:34:13.720Z,947.4
2019-02-02T19:37:22.621Z,947.5
2019-02-02T19:40:28.510Z,947.5
2019-02-02T19:43:34.672Z,947.5
2019-02-02T19:46:40.806Z,947.4
2019-02-02T19:49:46.764Z,947.4
2019-02-02T19:52:52.751Z,947.3
2019-02-02T19:55:58.994Z,947.4
2019-02-02T19:59:04.950Z,947.3
2019-02-02T20:02:10.860Z,947.4
2019-02-02T20:05:29.927Z,947.3
2019-02-02T20:08:35.941Z,947.4
2019-02-02T20:11:41.861Z,947.4
2019-02-02T20:14:47.914Z,947.3
2019-02-02T20:17:53.783Z,947.4
2019-02-02T20:21:13.295Z,947.3
2019-02-02T20:24:19.172Z,947.3
2019-02-02T20:27:25.253Z,947.3
2019-02-02T20:30:31.175Z,947.3
2019-02-02T20:33:37.340Z,947.3
2019-02-02T20:36:43.298Z,947.4
2019-02-02T20:39:49.195Z,947.4
2019-02-02T20:42:55.218Z,947.4
2019-02-02T20:46:01.300Z,947.3
2019-02-02T20:49:09.181Z,947.3
2019-02-02T20:52:15.243Z,947.4
2019-02-02T20:55:24.737Z,947.3
2019-02-02T20:58:31.266Z,947.3
2019-02-02T21:01:37.422Z,947.2
2019-02-02T21:04:43.586Z,947.3
2019-02-02T21:07:49.933Z,947.3
2019-02-02T21:10:57.640Z,947.2
2019-02-02T21:14:04.030Z,947.2
2019-02-02T21:17:09.960Z,947.3
2019-02-02T21:20:16.589Z,947.3
2019-02-02T21:23:23.470Z,947.4
2019-02-02T21:26:29.604Z,947.4
2019-02-02T21:29:35.845Z,947.5
2019-02-02T21:32:42.035Z,947.4
2019-02-02T21:35:50.149Z,947.4
2019-02-02T21:39:08.648Z,947.5
2019-02-02T21:42:14.684Z,947.4
2019-02-02T21:45:21.068Z,947.5
2019-02-02T21:48:29.358Z,947.5
2019-02-02T21:51:38.786Z,947.5
2019-02-02T21:54:44.702Z,947.5
2019-02-02T21:57:50.961Z,947.6
2019-02-02T22:00:58.191Z,947.6
2019-02-02T22:04:04.265Z,947.7
2019-02-02T22:07:10.197Z,947.8
2019-02-02T22:10:16.490Z,947.7
2019-02-02T22:13:22.370Z,947.6
2019-02-02T22:16:28.408Z,947.7
2019-02-02T22:19:35.237Z,947.6
2019-02-02T22:22:41.738Z,947.7
2019-02-02T22:25:50.743Z,947.8
2019-02-02T22:28:59.110Z,947.8
2019-02-02T22:32:05.732Z,947.8
2019-02-02T22:35:12.349Z,947.7
2019-02-02T22:38:18.420Z,947.7
2019-02-02T22:41:24.899Z,947.7
2019-02-02T22:44:30.891Z,947.7
2019-02-02T22:47:38.449Z,947.8
2019-02-02T22:50:44.514Z,947.8
2019-02-02T22:53:50.623Z,947.6
2019-02-02T22:56:56.635Z,947.7
2019-02-02T23:00:02.618Z,947.7
2019-02-02T23:03:08.644Z,947.5
2019-02-02T23:06:15.037Z,947.8
2019-02-02T23:09:20.936Z,947.7
2019-02-02T23:12:27.121Z,947.9
2019-02-02T23:15:32.996Z,947.6
2019-02-02T23:18:39.531Z,947.7
2019-02-02T23:21:49.944Z,947.8
2019-02-02T23:24:56.059Z,947.8
2019-02-02T23:28:02.325Z,947.6
2019-02-02T23:31:08.335Z,947.6
2019-02-02T23:34:16.706Z,947.7
2019-02-02T23:37:22.761Z,947.5
2019-02-02T23:40:28.733Z,947.4
2019-02-02T23:43:34.734Z,947.6
2019-02-02T23:46:40.645Z,947.6
2019-02-02T23:49:46.754Z,947.5
2019-02-02T23:52:53.377Z,947.6
2019-02-02T23:55:59.545Z,947.6
2019-02-02T23:59:05.488Z,947.6
